Time;durP1;ratioP1;P1;durP2;ratioP2;P2;SDS_P1;SDS_P2;PMS_P1;PMS_P2;Temp;Humidity;BMP_temperature;BMP_pressure;BME280_temperature;BME280_humidity;BME280_pressure;Samples;Min_cycle;Max_cycle;Signal;HPM_P1;HPM_P2
2021/05/16 00:00:44;;;;;;;10.43;4.00;;;;;;;;;;1470582;40;20584;-79
2021/05/16 00:01:45;;;;;;;12.27;3.47;;;;;;;;;;1478316;40;20517;-79
2021/05/16 00:02:47;;;;;;;12.77;3.53;;;;;;;;;;1482178;40;20408;-79
2021/05/16 00:03:49;;;;;;;15.13;4.30;;;;;;;;;;1482333;40;20416;-79
2021/05/16 00:04:51;;;;;;;8.23;2.72;;;;;;;;;;1476677;40;20422;-80
2021/05/16 00:05:52;;;;;;;11.53;4.17;;;;;;;;;;1474108;40;20416;-79
2021/05/16 00:06:54;;;;;;;11.88;3.70;;;;;;;;;;1480757;40;20413;-80
2021/05/16 00:07:56;;;;;;;9.25;3.28;;;;;;;;;;1482263;40;20434;-80
2021/05/16 00:08:58;;;;;;;12.95;3.45;;;;;;;;;;1477534;40;20442;-79
2021/05/16 00:09:59;;;;;;;10.65;2.95;;;;;;;;;;1470440;40;20707;-79
2021/05/16 00:11:02;;;;;;;9.30;2.70;;;;;;;;;;1472306;40;20589;-80
2021/05/16 00:12:05;;;;;;;9.13;3.10;;;;;;;;;;1473932;40;20463;-79
2021/05/16 00:13:08;;;;;;;12.15;3.03;;;;;;;;;;1474221;40;20443;-80
2021/05/16 00:14:10;;;;;;;12.02;3.72;;;;;;;;;;1478972;40;20410;-79
2021/05/16 00:15:14;;;;;;;7.78;2.85;;;;;;;;;;1474142;40;20467;-80
2021/05/16 00:16:15;;;;;;;10.85;3.15;;;;;;;;;;1474150;40;20431;-79
2021/05/16 00:17:17;;;;;;;14.75;3.58;;;;;;;;;;1478606;40;20410;-79
2021/05/16 00:18:19;;;;;;;8.95;3.30;;;;;;;;;;1478078;40;20405;-80
2021/05/16 00:19:21;;;;;;;14.70;3.78;;;;;;;;;;1477896;40;20783;-79
2021/05/16 00:20:26;;;;;;;10.35;2.92;;;;;;;;;;1479927;40;20731;-79
2021/05/16 00:21:28;;;;;;;11.52;2.63;;;;;;;;;;1478885;40;20408;-80
2021/05/16 00:22:30;;;;;;;12.18;3.30;;;;;;;;;;1473157;40;20450;-80
2021/05/16 00:23:31;;;;;;;12.10;2.90;;;;;;;;;;1473753;40;20423;-79
2021/05/16 00:24:33;;;;;;;12.38;3.70;;;;;;;;;;1478016;40;20406;-79
2021/05/16 00:25:35;;;;;;;11.63;3.40;;;;;;;;;;1477706;40;20789;-80
2021/05/16 00:26:37;;;;;;;10.07;3.65;;;;;;;;;;1477533;40;20429;-78
2021/05/16 00:27:39;;;;;;;12.73;4.50;;;;;;;;;;1469886;40;20616;-79
2021/05/16 00:28:41;;;;;;;15.67;4.93;;;;;;;;;;1473223;40;20549;-80
2021/05/16 00:29:43;;;;;;;14.63;4.40;;;;;;;;;;1482136;40;20784;-79
2021/05/16 00:30:45;;;;;;;18.67;5.40;;;;;;;;;;1481995;40;20975;-80
2021/05/16 00:31:46;;;;;;;22.13;6.40;;;;;;;;;;1482243;40;20428;-80
2021/05/16 00:32:49;;;;;;;20.25;5.55;;;;;;;;;;1477284;40;20429;-79
2021/05/16 00:33:50;;;;;;;22.52;5.30;;;;;;;;;;1476799;40;20493;-79
2021/05/16 00:34:52;;;;;;;21.80;5.93;;;;;;;;;;1472990;40;20845;-79
2021/05/16 00:35:53;;;;;;;18.80;5.72;;;;;;;;;;1468042;40;20413;-79
2021/05/16 00:36:55;;;;;;;21.85;5.53;;;;;;;;;;1475752;40;20461;-79
2021/05/16 00:37:59;;;;;;;18.50;6.10;;;;;;;;;;1478057;40;20534;-79
2021/05/16 00:39:01;;;;;;;19.50;4.75;;;;;;;;;;1473046;40;20805;-79
2021/05/16 00:40:04;;;;;;;22.33;5.68;;;;;;;;;;1474012;40;20579;-79
2021/05/16 00:41:08;;;;;;;20.58;6.03;;;;;;;;;;1474664;40;20415;-79
2021/05/16 00:42:10;;;;;;;28.17;6.32;;;;;;;;;;1473523;40;20975;-79
2021/05/16 00:43:12;;;;;;;21.92;5.25;;;;;;;;;;1473736;40;20434;-79
2021/05/16 00:44:17;;;;;;;21.10;4.65;;;;;;;;;;1473824;40;20427;-79
2021/05/16 00:45:21;;;;;;;22.20;6.03;;;;;;;;;;1469516;40;20422;-79
2021/05/16 00:46:22;;;;;;;21.00;4.68;;;;;;;;;;1474780;40;20834;-80
2021/05/16 00:47:24;;;;;;;22.95;4.85;;;;;;;;;;1482169;40;20404;-79
2021/05/16 00:48:25;;;;;;;20.23;5.05;;;;;;;;;;1477449;40;20517;-79
2021/05/16 00:49:27;;;;;;;15.15;4.40;;;;;;;;;;1476850;40;20394;-80
2021/05/16 00:50:44;;;;;;;23.38;5.43;;;;;;;;;;1479906;40;20418;-80
2021/05/16 00:51:46;;;;;;;19.70;4.38;;;;;;;;;;1479757;40;20412;-79
2021/05/16 00:52:48;;;;;;;19.75;5.22;;;;;;;;;;1476659;40;20962;-79
2021/05/16 00:53:49;;;;;;;18.35;4.72;;;;;;;;;;1477155;40;21155;-79
2021/05/16 00:54:55;;;;;;;16.95;4.40;;;;;;;;;;1482689;40;20396;-78
2021/05/16 00:55:57;;;;;;;18.23;4.30;;;;;;;;;;1480141;40;20414;-79
2021/05/16 00:56:59;;;;;;;18.63;3.72;;;;;;;;;;1473739;40;20427;-78
2021/05/16 00:58:02;;;;;;;23.02;4.88;;;;;;;;;;1471886;40;20797;-79
2021/05/16 00:59:05;;;;;;;21.05;5.45;;;;;;;;;;1477276;40;20851;-79
2021/05/16 01:00:07;;;;;;;20.30;4.43;;;;;;;;;;1482601;40;20420;-79
2021/05/16 01:01:10;;;;;;;20.38;5.28;;;;;;;;;;1482784;40;20415;-79
2021/05/16 01:02:12;;;;;;;21.83;5.13;;;;;;;;;;1482673;40;20789;-79
2021/05/16 01:03:15;;;;;;;22.92;5.00;;;;;;;;;;1482743;40;20431;-78
2021/05/16 01:04:16;;;;;;;21.15;5.40;;;;;;;;;;1477721;40;20457;-79
2021/05/16 01:05:19;;;;;;;22.95;5.45;;;;;;;;;;1471898;40;20429;-79
2021/05/16 01:06:21;;;;;;;24.33;4.88;;;;;;;;;;1473899;40;20534;-79
2021/05/16 01:07:23;;;;;;;24.13;5.07;;;;;;;;;;1469961;40;20444;-79
2021/05/16 01:08:24;;;;;;;21.88;4.93;;;;;;;;;;1478498;40;20422;-79
2021/05/16 01:09:27;;;;;;;25.50;5.50;;;;;;;;;;1469570;40;20409;-79
2021/05/16 01:10:29;;;;;;;33.92;7.20;;;;;;;;;;1470260;40;20449;-79
2021/05/16 01:11:31;;;;;;;29.25;6.35;;;;;;;;;;1477137;40;20413;-79
2021/05/16 01:12:40;;;;;;;31.40;6.57;;;;;;;;;;1482686;40;20429;-79
2021/05/16 01:13:46;;;;;;;28.15;6.82;;;;;;;;;;1474112;40;20418;-78
2021/05/16 01:14:48;;;;;;;24.83;6.15;;;;;;;;;;1475588;40;20840;-79
2021/05/16 01:15:50;;;;;;;34.80;7.70;;;;;;;;;;1474095;40;20483;-79
2021/05/16 01:16:51;;;;;;;32.08;7.63;;;;;;;;;;1473494;40;20428;-80
2021/05/16 01:17:53;;;;;;;31.55;6.82;;;;;;;;;;1477968;40;20791;-79
2021/05/16 01:18:56;;;;;;;33.73;7.33;;;;;;;;;;1477904;40;20728;-78
2021/05/16 01:19:57;;;;;;;35.60;8.43;;;;;;;;;;1472747;40;20662;-79
2021/05/16 01:20:59;;;;;;;40.40;8.07;;;;;;;;;;1465774;40;20438;-79
2021/05/16 01:22:03;;;;;;;36.28;7.60;;;;;;;;;;1471046;40;20402;-79
2021/05/16 01:23:12;;;;;;;34.13;7.72;;;;;;;;;;1474067;40;20420;-79
2021/05/16 01:24:20;;;;;;;40.42;9.23;;;;;;;;;;1481516;40;20502;-79
2021/05/16 01:25:22;;;;;;;42.42;8.43;;;;;;;;;;1477789;40;20604;-79
2021/05/16 01:26:24;;;;;;;39.63;7.47;;;;;;;;;;1473843;40;20427;-79
2021/05/16 01:27:26;;;;;;;35.55;8.85;;;;;;;;;;1469816;40;20406;-80
2021/05/16 01:28:27;;;;;;;45.45;7.47;;;;;;;;;;1473575;40;20479;-80
2021/05/16 01:29:29;;;;;;;44.47;8.30;;;;;;;;;;1479189;40;20462;-80
2021/05/16 01:30:31;;;;;;;43.63;9.20;;;;;;;;;;1481181;40;20423;-79
2021/05/16 01:31:33;;;;;;;41.83;8.65;;;;;;;;;;1486097;40;20405;-78
2021/05/16 01:32:34;;;;;;;42.65;9.38;;;;;;;;;;1485523;40;20412;-78
2021/05/16 01:33:36;;;;;;;41.50;8.80;;;;;;;;;;1486719;40;20397;-79
2021/05/16 01:34:40;;;;;;;38.38;8.38;;;;;;;;;;1481320;40;20403;-79
2021/05/16 01:35:41;;;;;;;43.95;8.85;;;;;;;;;;1478494;40;20802;-79
2021/05/16 01:36:43;;;;;;;44.28;9.05;;;;;;;;;;1478163;40;20421;-79
2021/05/16 01:37:47;;;;;;;42.45;9.82;;;;;;;;;;1477900;40;20418;-79
2021/05/16 01:38:48;;;;;;;42.97;10.85;;;;;;;;;;1483202;40;20936;-79
2021/05/16 01:39:50;;;;;;;46.13;12.15;;;;;;;;;;1482913;40;20664;-79
2021/05/16 01:40:51;;;;;;;46.35;13.02;;;;;;;;;;1482740;40;20404;-79
2021/05/16 01:41:54;;;;;;;46.20;13.02;;;;;;;;;;1473927;40;20471;-80
2021/05/16 01:42:57;;;;;;;45.10;12.48;;;;;;;;;;1473973;40;20386;-79
2021/05/16 01:43:59;;;;;;;47.75;13.65;;;;;;;;;;1482602;40;20494;-79
2021/05/16 01:45:04;;;;;;;47.15;12.75;;;;;;;;;;1482924;40;20419;-79
2021/05/16 01:46:06;;;;;;;43.08;12.30;;;;;;;;;;1477958;40;20402;-79
2021/05/16 01:47:08;;;;;;;46.47;13.45;;;;;;;;;;1470243;40;20406;-79
2021/05/16 01:48:09;;;;;;;32.78;10.50;;;;;;;;;;1473779;40;20726;-79
2021/05/16 01:49:11;;;;;;;42.28;12.10;;;;;;;;;;1481862;40;20403;-79
2021/05/16 01:50:15;;;;;;;48.50;12.95;;;;;;;;;;1475846;40;20462;-78
2021/05/16 01:51:19;;;;;;;45.65;12.77;;;;;;;;;;1478148;40;20485;-79
2021/05/16 01:52:29;;;;;;;46.70;12.98;;;;;;;;;;1473309;40;20483;-79
2021/05/16 01:53:30;;;;;;;37.90;13.20;;;;;;;;;;1474145;40;20825;-80
2021/05/16 01:54:33;;;;;;;41.15;12.40;;;;;;;;;;1473628;40;20428;-79
2021/05/16 01:55:35;;;;;;;45.92;13.15;;;;;;;;;;1479657;40;20418;-79
2021/05/16 01:56:36;;;;;;;43.85;13.45;;;;;;;;;;1482204;40;20432;-79
2021/05/16 01:57:38;;;;;;;56.17;13.82;;;;;;;;;;1482576;40;20523;-79
2021/05/16 01:58:40;;;;;;;37.25;13.00;;;;;;;;;;1482497;40;20409;-79
2021/05/16 01:59:42;;;;;;;51.90;15.15;;;;;;;;;;1482649;40;20666;-79
2021/05/16 02:00:44;;;;;;;50.20;14.10;;;;;;;;;;1477787;40;21141;-79
2021/05/16 02:01:46;;;;;;;48.38;14.20;;;;;;;;;;1473544;40;20428;-79
2021/05/16 02:02:48;;;;;;;47.35;14.15;;;;;;;;;;1473205;40;20444;-79
2021/05/16 02:03:50;;;;;;;52.17;15.57;;;;;;;;;;1478150;40;20426;-79
2021/05/16 02:04:52;;;;;;;55.63;15.00;;;;;;;;;;1480287;40;20541;-79
2021/05/16 02:05:54;;;;;;;47.90;14.95;;;;;;;;;;1482260;40;20524;-79
2021/05/16 02:06:57;;;;;;;55.17;15.45;;;;;;;;;;1480145;40;20418;-79
2021/05/16 02:08:01;;;;;;;48.90;14.75;;;;;;;;;;1473762;40;20416;-79
2021/05/16 02:09:03;;;;;;;46.28;14.90;;;;;;;;;;1473778;40;20415;-79
2021/05/16 02:10:05;;;;;;;47.60;15.20;;;;;;;;;;1478775;40;20519;-79
2021/05/16 02:11:08;;;;;;;49.75;14.80;;;;;;;;;;1476533;40;20795;-79
2021/05/16 02:12:10;;;;;;;48.40;13.25;;;;;;;;;;1478067;40;20405;-79
2021/05/16 02:13:12;;;;;;;51.58;15.63;;;;;;;;;;1477762;40;20484;-79
2021/05/16 02:14:21;;;;;;;54.67;15.02;;;;;;;;;;1472986;40;20784;-79
2021/05/16 02:15:23;;;;;;;47.60;15.07;;;;;;;;;;1478544;40;20394;-78
2021/05/16 02:16:24;;;;;;;50.47;14.85;;;;;;;;;;1482055;40;20800;-79
2021/05/16 02:17:27;;;;;;;49.45;15.52;;;;;;;;;;1482111;40;20424;-79
2021/05/16 02:18:28;;;;;;;48.80;13.82;;;;;;;;;;1482846;40;20500;-79
2021/05/16 02:19:33;;;;;;;50.50;14.35;;;;;;;;;;1477185;40;20479;-80
2021/05/16 02:20:34;;;;;;;51.45;16.33;;;;;;;;;;1476481;40;20395;-79
2021/05/16 02:21:36;;;;;;;52.00;14.85;;;;;;;;;;1476571;40;20399;-79
2021/05/16 02:22:39;;;;;;;48.15;15.13;;;;;;;;;;1473466;40;20435;-79
2021/05/16 02:23:41;;;;;;;50.20;14.60;;;;;;;;;;1478238;40;20399;-79
2021/05/16 02:24:44;;;;;;;53.92;14.27;;;;;;;;;;1477990;40;20414;-79
2021/05/16 02:25:48;;;;;;;40.47;13.32;;;;;;;;;;1474180;40;20415;-79
2021/05/16 02:26:50;;;;;;;46.83;14.48;;;;;;;;;;1473591;40;20423;-79
2021/05/16 02:27:52;;;;;;;45.35;15.57;;;;;;;;;;1473833;40;20549;-79
2021/05/16 02:28:53;;;;;;;49.58;14.77;;;;;;;;;;1473540;40;20400;-78
2021/05/16 02:29:55;;;;;;;41.55;13.45;;;;;;;;;;1477831;40;20512;-79
2021/05/16 02:30:57;;;;;;;41.10;13.65;;;;;;;;;;1482690;40;20503;-79
2021/05/16 02:31:59;;;;;;;42.50;13.55;;;;;;;;;;1482372;40;20416;-79
2021/05/16 02:33:04;;;;;;;45.38;14.63;;;;;;;;;;1473256;40;20420;-79
2021/05/16 02:34:07;;;;;;;46.83;12.52;;;;;;;;;;1478082;40;20438;-79
2021/05/16 02:35:10;;;;;;;41.53;13.52;;;;;;;;;;1480264;40;20755;-79
2021/05/16 02:36:12;;;;;;;41.65;14.27;;;;;;;;;;1481191;40;21056;-79
2021/05/16 02:37:14;;;;;;;40.95;12.77;;;;;;;;;;1478555;40;20446;-79
2021/05/16 02:38:15;;;;;;;41.00;11.88;;;;;;;;;;1477722;40;20410;-79
2021/05/16 02:39:17;;;;;;;41.30;12.43;;;;;;;;;;1482298;40;20403;-79
2021/05/16 02:40:18;;;;;;;42.63;12.48;;;;;;;;;;1481950;40;20502;-79
2021/05/16 02:41:20;;;;;;;37.10;12.50;;;;;;;;;;1477915;40;20481;-79
2021/05/16 02:42:22;;;;;;;43.40;14.95;;;;;;;;;;1477787;40;20418;-79
2021/05/16 02:43:23;;;;;;;40.90;12.45;;;;;;;;;;1478018;40;20410;-80
2021/05/16 02:44:27;;;;;;;42.15;12.98;;;;;;;;;;1477945;40;20457;-79
2021/05/16 02:45:29;;;;;;;48.22;12.82;;;;;;;;;;1482903;40;20423;-79
2021/05/16 02:46:31;;;;;;;39.40;12.38;;;;;;;;;;1482669;40;20416;-80
2021/05/16 02:47:32;;;;;;;43.83;12.70;;;;;;;;;;1482542;40;20417;-79
2021/05/16 02:48:34;;;;;;;38.15;13.25;;;;;;;;;;1482548;40;20651;-80
2021/05/16 02:49:36;;;;;;;43.45;13.30;;;;;;;;;;1481583;40;20412;-79
2021/05/16 02:50:37;;;;;;;35.30;11.25;;;;;;;;;;1480785;40;20761;-79
2021/05/16 02:51:39;;;;;;;34.70;11.73;;;;;;;;;;1480166;40;20760;-79
2021/05/16 02:52:41;;;;;;;45.30;12.02;;;;;;;;;;1473170;40;20435;-79
2021/05/16 02:53:44;;;;;;;35.00;10.93;;;;;;;;;;1473885;40;20396;-79
2021/05/16 02:54:45;;;;;;;33.92;10.65;;;;;;;;;;1473240;40;20698;-79
2021/05/16 02:55:47;;;;;;;35.35;12.43;;;;;;;;;;1473579;40;20836;-79
2021/05/16 02:56:49;;;;;;;34.58;10.02;;;;;;;;;;1477560;40;21022;-79
2021/05/16 02:57:51;;;;;;;39.60;10.70;;;;;;;;;;1475126;40;20438;-79
2021/05/16 02:58:52;;;;;;;37.63;12.23;;;;;;;;;;1473371;40;20416;-79
2021/05/16 02:59:54;;;;;;;32.45;9.57;;;;;;;;;;1469582;40;20768;-79
2021/05/16 03:00:56;;;;;;;25.63;8.77;;;;;;;;;;1477709;40;20418;-79
2021/05/16 03:01:57;;;;;;;36.03;10.25;;;;;;;;;;1482459;40;20456;-79
2021/05/16 03:03:00;;;;;;;39.78;9.60;;;;;;;;;;1482032;40;20868;-78
2021/05/16 03:04:02;;;;;;;32.53;7.82;;;;;;;;;;1481360;40;20428;-78
2021/05/16 03:05:04;;;;;;;34.53;8.10;;;;;;;;;;1475162;40;20586;-79
2021/05/16 03:06:06;;;;;;;30.58;7.75;;;;;;;;;;1477924;40;20410;-78
2021/05/16 03:07:08;;;;;;;32.40;8.77;;;;;;;;;;1478906;40;20479;-79
2021/05/16 03:08:09;;;;;;;30.63;8.48;;;;;;;;;;1473661;40;20464;-79
2021/05/16 03:09:11;;;;;;;27.73;7.07;;;;;;;;;;1469643;40;20426;-79
2021/05/16 03:10:13;;;;;;;31.08;7.47;;;;;;;;;;1473964;40;20463;-79
2021/05/16 03:11:15;;;;;;;28.65;5.72;;;;;;;;;;1477157;40;20454;-79
2021/05/16 03:12:16;;;;;;;24.08;6.28;;;;;;;;;;1477852;40;20780;-79
2021/05/16 03:13:18;;;;;;;21.77;4.90;;;;;;;;;;1482217;40;20769;-79
2021/05/16 03:14:20;;;;;;;19.77;4.15;;;;;;;;;;1482622;40;20403;-79
2021/05/16 03:15:22;;;;;;;22.40;4.80;;;;;;;;;;1482406;40;20405;-79
2021/05/16 03:16:24;;;;;;;19.38;4.53;;;;;;;;;;1481309;40;20527;-79
2021/05/16 03:17:25;;;;;;;19.38;4.65;;;;;;;;;;1481899;40;20424;-80
2021/05/16 03:18:27;;;;;;;21.70;4.87;;;;;;;;;;1477660;40;20394;-79
2021/05/16 03:19:29;;;;;;;22.83;4.47;;;;;;;;;;1473153;40;20498;-79
2021/05/16 03:20:30;;;;;;;16.40;4.38;;;;;;;;;;1475999;40;20437;-79
2021/05/16 03:21:32;;;;;;;18.70;4.72;;;;;;;;;;1481365;40;20401;-80
2021/05/16 03:22:34;;;;;;;16.63;4.55;;;;;;;;;;1478330;40;20731;-79
2021/05/16 03:23:36;;;;;;;16.13;4.35;;;;;;;;;;1478367;40;20413;-79
2021/05/16 03:24:38;;;;;;;18.23;4.13;;;;;;;;;;1479662;40;20416;-79
2021/05/16 03:25:39;;;;;;;18.95;4.38;;;;;;;;;;1481359;40;20914;-79
2021/05/16 03:26:41;;;;;;;18.33;4.28;;;;;;;;;;1478293;40;20823;-79
2021/05/16 03:27:43;;;;;;;16.35;4.90;;;;;;;;;;1479703;40;20416;-78
2021/05/16 03:28:45;;;;;;;13.35;3.90;;;;;;;;;;1476463;40;20769;-79
2021/05/16 03:29:46;;;;;;;14.43;4.78;;;;;;;;;;1478370;40;20476;-78
2021/05/16 03:30:48;;;;;;;20.40;6.35;;;;;;;;;;1477870;40;20409;-79
2021/05/16 03:31:49;;;;;;;23.17;5.63;;;;;;;;;;1473385;40;20420;-79
2021/05/16 03:32:51;;;;;;;17.75;5.50;;;;;;;;;;1477590;40;20513;-78
2021/05/16 03:33:53;;;;;;;15.65;5.20;;;;;;;;;;1477782;40;20881;-79
2021/05/16 03:34:55;;;;;;;16.80;6.00;;;;;;;;;;1471516;40;20479;-79
2021/05/16 03:35:56;;;;;;;15.60;6.05;;;;;;;;;;1473702;40;20436;-79
2021/05/16 03:36:59;;;;;;;14.93;6.27;;;;;;;;;;1475172;40;20407;-78
2021/05/16 03:38:00;;;;;;;14.00;5.95;;;;;;;;;;1473679;40;20407;-79
2021/05/16 03:39:07;;;;;;;18.75;7.40;;;;;;;;;;1469884;40;20461;-79
2021/05/16 03:40:09;;;;;;;17.25;7.68;;;;;;;;;;1473807;40;20420;-79
2021/05/16 03:41:11;;;;;;;20.30;8.57;;;;;;;;;;1475676;40;20406;-79
2021/05/16 03:42:13;;;;;;;17.15;7.47;;;;;;;;;;1477888;40;20402;-79
2021/05/16 03:43:15;;;;;;;23.67;7.32;;;;;;;;;;1482386;40;20493;-78
2021/05/16 03:44:17;;;;;;;15.27;7.65;;;;;;;;;;1477870;40;20406;-79
2021/05/16 03:45:19;;;;;;;16.00;7.32;;;;;;;;;;1477875;40;20416;-79
2021/05/16 03:46:20;;;;;;;16.13;7.78;;;;;;;;;;1482524;40;20443;-78
2021/05/16 03:47:23;;;;;;;22.85;8.27;;;;;;;;;;1477779;40;20970;-79
2021/05/16 03:48:24;;;;;;;18.95;7.80;;;;;;;;;;1478142;40;20792;-79
2021/05/16 03:49:26;;;;;;;23.80;8.27;;;;;;;;;;1481972;40;20770;-79
2021/05/16 03:50:28;;;;;;;22.95;8.20;;;;;;;;;;1475704;40;20406;-79
2021/05/16 03:51:29;;;;;;;22.83;7.60;;;;;;;;;;1473024;40;20902;-79
2021/05/16 03:52:31;;;;;;;22.55;7.50;;;;;;;;;;1473507;40;20918;-80
2021/05/16 03:53:33;;;;;;;25.65;8.65;;;;;;;;;;1479331;40;20801;-80
2021/05/16 03:54:34;;;;;;;27.85;8.82;;;;;;;;;;1482801;40;20979;-80
2021/05/16 03:55:36;;;;;;;27.23;8.73;;;;;;;;;;1482504;40;20472;-80
2021/05/16 03:56:38;;;;;;;20.30;8.23;;;;;;;;;;1477468;40;20752;-79
2021/05/16 03:57:40;;;;;;;33.05;7.90;;;;;;;;;;1477858;40;20941;-79
2021/05/16 03:58:42;;;;;;;29.60;8.80;;;;;;;;;;1479883;40;20440;-78
2021/05/16 03:59:43;;;;;;;36.13;8.38;;;;;;;;;;1481110;40;20411;-78
2021/05/16 04:00:45;;;;;;;35.58;9.23;;;;;;;;;;1486277;40;20400;-79
2021/05/16 04:01:47;;;;;;;33.90;8.52;;;;;;;;;;1484735;40;20423;-79
2021/05/16 04:02:48;;;;;;;32.67;8.27;;;;;;;;;;1481183;40;20422;-78
2021/05/16 04:03:50;;;;;;;31.52;8.00;;;;;;;;;;1480994;40;20433;-78
2021/05/16 04:04:53;;;;;;;31.42;7.63;;;;;;;;;;1482334;40;20406;-79
2021/05/16 04:05:55;;;;;;;40.13;8.23;;;;;;;;;;1477183;40;20881;-79
2021/05/16 04:06:57;;;;;;;39.00;7.80;;;;;;;;;;1475663;40;20420;-79
2021/05/16 04:07:58;;;;;;;42.08;8.77;;;;;;;;;;1478456;40;20402;-79
2021/05/16 04:09:00;;;;;;;40.97;8.27;;;;;;;;;;1473525;40;20408;-78
2021/05/16 04:10:03;;;;;;;37.53;6.93;;;;;;;;;;1473304;40;20419;-79
2021/05/16 04:11:05;;;;;;;41.20;8.40;;;;;;;;;;1480715;40;20412;-79
2021/05/16 04:12:07;;;;;;;37.40;6.90;;;;;;;;;;1477416;40;20426;-79
2021/05/16 04:13:09;;;;;;;37.55;7.07;;;;;;;;;;1473809;40;20407;-79
2021/05/16 04:14:10;;;;;;;37.85;6.45;;;;;;;;;;1473580;40;20436;-79
2021/05/16 04:15:12;;;;;;;42.65;7.13;;;;;;;;;;1477725;40;20690;-79
2021/05/16 04:16:14;;;;;;;38.88;6.82;;;;;;;;;;1481509;40;20420;-79
2021/05/16 04:17:17;;;;;;;37.90;6.60;;;;;;;;;;1482276;40;20518;-79
2021/05/16 04:18:18;;;;;;;41.10;7.43;;;;;;;;;;1476638;40;20402;-79
2021/05/16 04:19:20;;;;;;;37.15;6.55;;;;;;;;;;1469464;40;20575;-79
2021/05/16 04:20:22;;;;;;;35.13;6.30;;;;;;;;;;1473112;40;20470;-79
2021/05/16 04:21:23;;;;;;;33.92;5.55;;;;;;;;;;1477342;40;20410;-79
2021/05/16 04:22:25;;;;;;;30.10;5.25;;;;;;;;;;1477811;40;20470;-79
2021/05/16 04:23:26;;;;;;;34.58;6.68;;;;;;;;;;1478224;40;20417;-79
2021/05/16 04:24:28;;;;;;;28.07;5.00;;;;;;;;;;1473446;40;20560;-80
2021/05/16 04:25:30;;;;;;;29.92;4.72;;;;;;;;;;1473959;40;20475;-79
2021/05/16 04:26:31;;;;;;;28.02;4.38;;;;;;;;;;1473086;40;20439;-79
2021/05/16 04:27:33;;;;;;;21.58;3.90;;;;;;;;;;1465111;40;20795;-79
2021/05/16 04:28:34;;;;;;;20.38;3.70;;;;;;;;;;1469351;40;20405;-80
2021/05/16 04:29:36;;;;;;;20.75;3.83;;;;;;;;;;1479041;40;20413;-80
2021/05/16 04:30:37;;;;;;;19.25;3.75;;;;;;;;;;1478271;40;20496;-80
2021/05/16 04:31:39;;;;;;;19.87;3.23;;;;;;;;;;1482872;40;20592;-80
2021/05/16 04:32:41;;;;;;;17.73;2.70;;;;;;;;;;1480207;40;20768;-79
2021/05/16 04:33:42;;;;;;;16.15;2.92;;;;;;;;;;1478845;40;20402;-79
2021/05/16 04:34:44;;;;;;;14.38;2.40;;;;;;;;;;1474671;40;20458;-79
2021/05/16 04:35:45;;;;;;;17.25;2.75;;;;;;;;;;1470437;40;20421;-80
2021/05/16 04:36:47;;;;;;;12.30;2.63;;;;;;;;;;1474010;40;20467;-79
2021/05/16 04:37:49;;;;;;;20.67;2.75;;;;;;;;;;1478575;40;20560;-78
2021/05/16 04:38:52;;;;;;;14.95;2.25;;;;;;;;;;1478533;40;20664;-79
2021/05/16 04:39:53;;;;;;;14.88;2.47;;;;;;;;;;1473973;40;21217;-79
2021/05/16 04:40:55;;;;;;;13.52;2.25;;;;;;;;;;1473663;40;20521;-79
2021/05/16 04:41:56;;;;;;;14.88;2.80;;;;;;;;;;1478217;40;20412;-79
2021/05/16 04:42:59;;;;;;;11.60;2.33;;;;;;;;;;1478116;40;20577;-79
2021/05/16 04:44:01;;;;;;;11.93;2.15;;;;;;;;;;1477620;40;20398;-78
2021/05/16 04:45:04;;;;;;;12.43;2.28;;;;;;;;;;1482712;40;20416;-79
2021/05/16 04:46:07;;;;;;;13.13;2.67;;;;;;;;;;1474326;40;20407;-79
2021/05/16 04:47:09;;;;;;;14.23;2.50;;;;;;;;;;1470092;40;20390;-79
2021/05/16 04:48:10;;;;;;;14.30;2.55;;;;;;;;;;1478520;40;20406;-79
2021/05/16 04:49:13;;;;;;;16.85;2.53;;;;;;;;;;1478121;40;20438;-79
2021/05/16 04:50:15;;;;;;;15.77;2.55;;;;;;;;;;1476048;40;20821;-79
2021/05/16 04:51:17;;;;;;;16.92;2.63;;;;;;;;;;1482793;40;20408;-79
2021/05/16 04:52:18;;;;;;;13.38;2.90;;;;;;;;;;1477622;40;20457;-79
2021/05/16 04:53:20;;;;;;;14.65;2.53;;;;;;;;;;1478092;40;20410;-79
2021/05/16 04:54:22;;;;;;;17.08;3.05;;;;;;;;;;1482930;40;20400;-79
2021/05/16 04:55:24;;;;;;;18.27;2.50;;;;;;;;;;1482518;40;20400;-79
2021/05/16 04:56:26;;;;;;;19.05;2.72;;;;;;;;;;1476734;40;20520;-79
2021/05/16 04:57:28;;;;;;;17.48;3.17;;;;;;;;;;1478076;40;20917;-79
2021/05/16 04:58:32;;;;;;;18.98;2.72;;;;;;;;;;1473937;40;20507;-80
2021/05/16 04:59:33;;;;;;;24.85;3.78;;;;;;;;;;1470150;40;20815;-80
2021/05/16 05:00:35;;;;;;;16.60;3.30;;;;;;;;;;1478360;40;20417;-80
2021/05/16 05:01:38;;;;;;;24.02;3.88;;;;;;;;;;1477971;40;20418;-80
2021/05/16 05:02:41;;;;;;;16.23;2.97;;;;;;;;;;1478250;40;20406;-78
2021/05/16 05:03:43;;;;;;;19.73;4.38;;;;;;;;;;1473985;40;20419;-79
2021/05/16 05:04:45;;;;;;;17.80;3.75;;;;;;;;;;1472527;40;20428;-79
2021/05/16 05:05:46;;;;;;;20.35;3.75;;;;;;;;;;1477196;40;20446;-79
2021/05/16 05:06:48;;;;;;;26.92;5.35;;;;;;;;;;1480919;40;20492;-78
2021/05/16 05:07:50;;;;;;;22.05;4.35;;;;;;;;;;1473678;40;20495;-79
2021/05/16 05:08:51;;;;;;;22.70;4.15;;;;;;;;;;1469842;40;20586;-78
2021/05/16 05:09:53;;;;;;;22.42;4.63;;;;;;;;;;1473723;40;20426;-79
2021/05/16 05:10:55;;;;;;;33.90;5.85;;;;;;;;;;1480844;40;20433;-78
2021/05/16 05:11:56;;;;;;;31.48;5.60;;;;;;;;;;1478028;40;20402;-79
2021/05/16 05:12:58;;;;;;;31.75;5.93;;;;;;;;;;1473665;40;20404;-79
2021/05/16 05:14:00;;;;;;;35.73;5.40;;;;;;;;;;1478075;40;20484;-79
2021/05/16 05:15:03;;;;;;;36.30;6.80;;;;;;;;;;1478184;40;20504;-79
2021/05/16 05:16:06;;;;;;;34.25;6.30;;;;;;;;;;1478176;40;20410;-79
2021/05/16 05:17:08;;;;;;;33.08;6.15;;;;;;;;;;1482461;40;20747;-79
2021/05/16 05:18:09;;;;;;;37.97;6.50;;;;;;;;;;1478188;40;20414;-80
2021/05/16 05:19:11;;;;;;;31.83;6.10;;;;;;;;;;1477962;40;20644;-79
2021/05/16 05:20:14;;;;;;;40.03;8.57;;;;;;;;;;1474906;40;20814;-80
2021/05/16 05:21:15;;;;;;;34.28;6.82;;;;;;;;;;1473802;40;20428;-79
2021/05/16 05:22:17;;;;;;;30.40;5.68;;;;;;;;;;1481872;40;20413;-79
2021/05/16 05:23:19;;;;;;;39.97;6.75;;;;;;;;;;1473431;40;20781;-79
2021/05/16 05:24:22;;;;;;;33.95;5.93;;;;;;;;;;1470042;40;20406;-79
2021/05/16 05:25:24;;;;;;;31.88;5.75;;;;;;;;;;1478425;40;20402;-79
2021/05/16 05:26:25;;;;;;;34.17;6.97;;;;;;;;;;1477845;40;20418;-79
2021/05/16 05:27:27;;;;;;;33.20;6.22;;;;;;;;;;1473499;40;20435;-79
2021/05/16 05:28:29;;;;;;;39.88;6.07;;;;;;;;;;1477788;40;21313;-80
2021/05/16 05:29:30;;;;;;;30.88;6.22;;;;;;;;;;1482934;40;20813;-79
2021/05/16 05:30:32;;;;;;;32.17;6.18;;;;;;;;;;1478672;40;20437;-80
2021/05/16 05:31:38;;;;;;;34.83;6.40;;;;;;;;;;1478564;40;20448;-79
2021/05/16 05:32:40;;;;;;;33.17;6.43;;;;;;;;;;1478642;40;20761;-79
2021/05/16 05:33:41;;;;;;;36.95;5.65;;;;;;;;;;1481585;40;20786;-79
2021/05/16 05:34:43;;;;;;;30.35;5.57;;;;;;;;;;1477007;40;20444;-80
2021/05/16 05:35:46;;;;;;;34.55;6.25;;;;;;;;;;1476043;40;20472;-80
2021/05/16 05:36:47;;;;;;;35.17;5.90;;;;;;;;;;1483092;40;20408;-78
2021/05/16 05:37:50;;;;;;;35.35;6.97;;;;;;;;;;1477184;40;20434;-80
2021/05/16 05:38:52;;;;;;;33.17;7.05;;;;;;;;;;1474846;40;20826;-79
2021/05/16 05:39:54;;;;;;;29.65;5.28;;;;;;;;;;1474259;40;20404;-79
2021/05/16 05:40:55;;;;;;;33.95;5.88;;;;;;;;;;1471635;40;20415;-79
2021/05/16 05:41:57;;;;;;;32.50;5.73;;;;;;;;;;1478390;40;20774;-80
2021/05/16 05:42:59;;;;;;;23.02;4.47;;;;;;;;;;1478372;40;20753;-78
2021/05/16 05:44:02;;;;;;;23.77;4.45;;;;;;;;;;1478602;40;20414;-79
2021/05/16 05:45:06;;;;;;;23.90;4.72;;;;;;;;;;1479203;40;20711;-79
2021/05/16 05:46:08;;;;;;;23.25;4.43;;;;;;;;;;1481212;40;20403;-80
2021/05/16 05:47:10;;;;;;;23.98;4.93;;;;;;;;;;1477275;40;20409;-81
2021/05/16 05:48:12;;;;;;;24.85;4.80;;;;;;;;;;1474337;40;20419;-80
2021/05/16 05:49:14;;;;;;;24.75;5.38;;;;;;;;;;1478423;40;20397;-80
2021/05/16 05:50:15;;;;;;;28.73;5.45;;;;;;;;;;1481095;40;20429;-79
2021/05/16 05:51:17;;;;;;;30.05;4.65;;;;;;;;;;1473890;40;20435;-80
2021/05/16 05:52:18;;;;;;;24.63;5.18;;;;;;;;;;1476994;40;20518;-79
2021/05/16 05:53:21;;;;;;;28.95;5.93;;;;;;;;;;1473797;40;20416;-79
2021/05/16 05:54:23;;;;;;;34.93;6.27;;;;;;;;;;1474568;40;20554;-79
2021/05/16 05:55:25;;;;;;;32.00;6.22;;;;;;;;;;1474127;40;20803;-79
2021/05/16 05:56:26;;;;;;;39.47;6.13;;;;;;;;;;1474237;40;20555;-79
2021/05/16 05:57:28;;;;;;;35.55;6.78;;;;;;;;;;1477829;40;20414;-79
2021/05/16 05:58:33;;;;;;;34.85;6.72;;;;;;;;;;1481514;40;20397;-79
2021/05/16 05:59:35;;;;;;;33.20;7.10;;;;;;;;;;1473086;40;20467;-80
2021/05/16 06:00:36;;;;;;;30.67;5.97;;;;;;;;;;1474342;40;20396;-80
2021/05/16 06:01:38;;;;;;;38.83;7.78;;;;;;;;;;1478067;40;20414;-80
2021/05/16 06:02:39;;;;;;;39.25;6.60;;;;;;;;;;1477870;40;20434;-80
2021/05/16 06:03:42;;;;;;;37.60;8.07;;;;;;;;;;1481889;40;21068;-79
2021/05/16 06:04:45;;;;;;;35.15;7.13;;;;;;;;;;1472598;40;20483;-79
2021/05/16 06:05:47;;;;;;;40.63;9.23;;;;;;;;;;1468892;40;20402;-79